Nelson, Virginia
Current Conditions -  °F | °C
As of 8:55 PM on Sunday 21 Dec 2014 (Local Time) from KW63 Reporting Station
Clear Clear  
Wind Chill:   Ceiling: Unl
Heat Index:   Visibility: 10mi
Dew Point:   Wind: 3mph
Humidity: 81%   Direction: 80°E
Pressure: 30.26"   Gusts: NA
Location:  36.56°N, 78.7°W
Report Text: KW63 220155Z AUTO 08003KT 10SM CLR 03/00 A3026 RMK AO1
Loading
Personal Weather Stations






























Interactive Weather Map New forecast layout! Learn more

10-Day Weather Forecast

Advertisements
Track Severe Weather on mobile